< < Back
Terminal Aerodrome Forecast


Current Version              Previous Versions:   1  2  3  4  5  6  7  8  9  

Terminal Aerodrome Forecast

275
FTUS42 KTAE 010500
TAFABY
TAF
KABY 010523Z 0106/0206 05005KT P6SM SCT250
     FM012000 VRB05KT P6SM VCTS SCT050CB SCT250
     FM020100 VRB03KT P6SM SCT250=



Latest METAR

587
SAUS70 KWBC 010456
MTRABY
METAR KABY 010453Z 06006KT 10SM CLR 24/21 A3000 RMK AO2 SLP157 T02440211
403330178


USA.gov is the U.S. government's official web portal to all federal, state and local government web resources and services.